Time;durP1;ratioP1;P1;durP2;ratioP2;P2;SDS_P1;SDS_P2;PMS_P1;PMS_P2;Temp;Humidity;BMP_temperature;BMP_pressure;BME280_temperature;BME280_humidity;BME280_pressure;Samples;Min_cycle;Max_cycle;Signal;HPM_P1;HPM_P2
2022/08/04 00:02:17;;;;;;;4.53;2.10;;;25.70;58.90;;;;;;5010044;28;20034;-67
2022/08/04 00:04:52;;;;;;;4.22;1.90;;;25.60;59.00;;;;;;5009287;28;20014;-67
2022/08/04 00:07:25;;;;;;;4.82;2.22;;;25.60;59.20;;;;;;5009942;28;20030;-67
2022/08/04 00:09:56;;;;;;;3.33;2.10;;;25.50;59.30;;;;;;5010226;28;20030;-67
2022/08/04 00:12:24;;;;;;;3.97;1.88;;;25.50;59.40;;;;;;5009129;28;20033;-67
2022/08/04 00:14:54;;;;;;;3.95;1.92;;;25.50;59.30;;;;;;5009367;28;20105;-67
2022/08/04 00:17:24;;;;;;;5.20;2.25;;;25.40;59.40;;;;;;5008050;28;20053;-67
2022/08/04 00:20:00;;;;;;;3.45;1.77;;;25.40;59.60;;;;;;5009514;28;20112;-67
2022/08/04 00:22:28;;;;;;;4.28;1.90;;;25.40;59.70;;;;;;5005346;28;20092;-66
2022/08/04 00:25:01;;;;;;;4.25;1.88;;;25.40;60.20;;;;;;5008882;28;20022;-66
2022/08/04 00:27:29;;;;;;;2.60;1.70;;;25.40;59.70;;;;;;5010063;28;20053;-67
2022/08/04 00:29:55;;;;;;;4.28;2.20;;;25.30;59.60;;;;;;5009833;28;20053;-66
2022/08/04 00:32:22;;;;;;;3.60;2.40;;;25.30;59.80;;;;;;5010012;28;20029;-66
2022/08/04 00:34:48;;;;;;;3.22;1.95;;;25.30;60.00;;;;;;5008804;28;20026;-66
2022/08/04 00:37:15;;;;;;;4.07;1.92;;;25.20;60.10;;;;;;5009563;28;20025;-66
2022/08/04 00:39:43;;;;;;;2.63;1.67;;;25.20;60.20;;;;;;5009845;28;20025;-66
2022/08/04 00:42:46;;;;;;;3.50;1.80;;;25.20;60.10;;;;;;5005642;28;20038;-67
2022/08/04 00:45:12;;;;;;;4.22;2.00;;;25.10;60.10;;;;;;5006015;28;20033;-67
2022/08/04 00:48:27;;;;;;;3.45;2.00;;;25.10;60.20;;;;;;5009646;28;20034;-66
2022/08/04 00:51:13;;;;;;;6.55;2.20;;;25.10;60.30;;;;;;4996819;28;20080;-66
2022/08/04 00:54:00;;;;;;;3.72;1.77;;;25.00;60.50;;;;;;5007054;28;20072;-67
2022/08/04 00:56:37;;;;;;;3.63;1.65;;;25.00;60.30;;;;;;5005267;28;20484;-67
2022/08/04 00:59:38;;;;;;;2.88;1.88;;;25.00;60.20;;;;;;5009864;28;20022;-66
2022/08/04 01:02:25;;;;;;;3.65;1.88;;;25.00;60.40;;;;;;5009341;28;20033;-66
2022/08/04 01:05:05;;;;;;;1.88;1.60;;;24.90;60.30;;;;;;5009783;28;20042;-66
2022/08/04 01:07:52;;;;;;;3.67;2.15;;;24.90;60.60;;;;;;5008528;28;20038;-66
2022/08/04 01:10:46;;;;;;;3.53;1.80;;;24.90;60.50;;;;;;5009922;28;20435;-66
2022/08/04 01:13:21;;;;;;;4.10;1.80;;;24.90;60.40;;;;;;5009641;28;20030;-66
2022/08/04 01:16:04;;;;;;;2.97;1.70;;;24.90;60.40;;;;;;5006994;28;20033;-67
2022/08/04 01:18:41;;;;;;;3.90;1.77;;;24.90;60.50;;;;;;5005465;28;20017;-67
2022/08/04 01:21:28;;;;;;;4.10;1.80;;;24.90;60.60;;;;;;5002835;28;20025;-67
2022/08/04 01:24:23;;;;;;;5.93;3.50;;;24.80;60.80;;;;;;5004292;28;20030;-67
2022/08/04 01:27:11;;;;;;;4.30;2.20;;;24.80;60.70;;;;;;4998011;28;20500;-67
2022/08/04 01:29:45;;;;;;;2.53;1.75;;;24.80;60.80;;;;;;5000572;28;20030;-67
2022/08/04 01:32:35;;;;;;;2.30;1.63;;;24.70;60.80;;;;;;4994693;28;20117;-66
2022/08/04 01:35:10;;;;;;;3.85;1.92;;;24.70;60.80;;;;;;4990702;28;20421;-67
2022/08/04 01:37:54;;;;;;;3.33;1.73;;;24.60;61.10;;;;;;4990983;28;20074;-67
2022/08/04 01:40:21;;;;;;;3.05;1.70;;;24.60;61.00;;;;;;4990822;28;20035;-67
2022/08/04 01:42:51;;;;;;;2.60;1.75;;;24.60;61.20;;;;;;4990900;28;20045;-67
2022/08/04 01:45:16;;;;;;;7.22;1.95;;;24.50;61.30;;;;;;4989368;28;20022;-67
2022/08/04 01:47:50;;;;;;;4.75;2.83;;;24.50;61.30;;;;;;4990847;28;20034;-67
2022/08/04 01:50:16;;;;;;;4.78;3.53;;;24.50;61.60;;;;;;4990769;28;20080;-67
2022/08/04 01:52:43;;;;;;;6.22;2.30;;;24.50;61.60;;;;;;4993188;28;20042;-67
2022/08/04 01:55:11;;;;;;;4.15;2.13;;;24.50;61.70;;;;;;5011369;28;20023;-67
2022/08/04 01:57:44;;;;;;;4.15;2.00;;;24.40;61.80;;;;;;5010350;28;20074;-67
2022/08/04 02:00:12;;;;;;;4.22;2.03;;;24.40;61.80;;;;;;4994431;28;20492;-67
2022/08/04 02:02:38;;;;;;;2.38;1.50;;;24.40;61.90;;;;;;4992145;28;20022;-67
2022/08/04 02:05:04;;;;;;;4.63;2.00;;;24.40;61.70;;;;;;4992721;28;20537;-67
2022/08/04 02:07:44;;;;;;;3.05;1.73;;;24.40;61.80;;;;;;4991505;28;20058;-67
2022/08/04 02:10:34;;;;;;;4.28;1.70;;;24.30;61.80;;;;;;4991782;28;20143;-67
2022/08/04 02:13:12;;;;;;;4.18;2.00;;;24.30;61.80;;;;;;4991040;28;20061;-67
2022/08/04 02:15:43;;;;;;;4.15;1.80;;;24.30;61.80;;;;;;4991358;28;20105;-67
2022/08/04 02:18:41;;;;;;;3.83;1.70;;;24.30;61.80;;;;;;4990915;28;20026;-67
2022/08/04 02:21:07;;;;;;;4.28;1.73;;;24.30;61.90;;;;;;4990788;28;20065;-67
2022/08/04 02:23:40;;;;;;;3.17;1.80;;;24.30;62.00;;;;;;4990381;28;20112;-67
2022/08/04 02:26:18;;;;;;;3.58;1.73;;;24.20;62.10;;;;;;4990735;28;20061;-67
2022/08/04 02:28:46;;;;;;;3.78;1.70;;;24.20;62.20;;;;;;4989348;28;20026;-67
2022/08/04 02:31:29;;;;;;;3.83;1.70;;;24.20;62.20;;;;;;4989852;28;20026;-67
2022/08/04 02:34:06;;;;;;;5.00;2.17;;;24.20;62.20;;;;;;4988883;28;20022;-67
2022/08/04 02:36:39;;;;;;;5.15;1.83;;;24.10;62.40;;;;;;4994065;28;20113;-66
2022/08/04 02:39:07;;;;;;;3.53;1.80;;;24.10;62.40;;;;;;4994009;28;20097;-67
2022/08/04 02:41:35;;;;;;;4.28;1.92;;;24.10;62.30;;;;;;4993934;28;20068;-67
2022/08/04 02:44:04;;;;;;;4.10;2.00;;;24.10;63.10;;;;;;4996495;28;20025;-67
2022/08/04 02:46:32;;;;;;;3.95;1.85;;;24.10;62.50;;;;;;5003860;28;20049;-67
2022/08/04 02:49:01;;;;;;;4.20;1.73;;;24.10;62.50;;;;;;5005685;28;20501;-67
2022/08/04 02:51:32;;;;;;;3.55;1.95;;;24.10;62.60;;;;;;5003733;28;20025;-67
2022/08/04 02:53:58;;;;;;;4.05;1.92;;;24.10;62.50;;;;;;5001442;28;20062;-67
2022/08/04 02:56:27;;;;;;;3.75;1.65;;;24.10;62.50;;;;;;4997288;28;20411;-67
2022/08/04 02:59:02;;;;;;;4.15;1.77;;;24.10;62.30;;;;;;4998569;28;20640;-67
2022/08/04 03:01:27;;;;;;;5.82;1.70;;;24.10;62.20;;;;;;4996218;28;20041;-67
2022/08/04 03:04:17;;;;;;;3.50;1.50;;;24.10;62.10;;;;;;4997551;28;20105;-67
2022/08/04 03:07:16;;;;;;;4.82;1.80;;;24.10;62.00;;;;;;5000997;28;20028;-67
2022/08/04 03:10:06;;;;;;;2.22;1.55;;;24.10;62.00;;;;;;4995212;28;20061;-67
2022/08/04 03:12:53;;;;;;;4.20;1.75;;;24.10;61.90;;;;;;4993650;28;20027;-67
2022/08/04 03:15:47;;;;;;;4.07;1.70;;;24.10;62.10;;;;;;4993855;28;20030;-67
2022/08/04 03:18:43;;;;;;;5.22;1.80;;;24.00;62.10;;;;;;4993382;28;20443;-67
2022/08/04 03:21:09;;;;;;;3.72;1.60;;;24.00;62.30;;;;;;4993776;28;20087;-67
2022/08/04 03:23:43;;;;;;;4.70;1.80;;;24.00;62.40;;;;;;4993264;28;20440;-67
2022/08/04 03:26:27;;;;;;;4.07;1.75;;;24.00;62.30;;;;;;4993595;28;20030;-67
2022/08/04 03:29:07;;;;;;;3.55;1.70;;;24.00;62.30;;;;;;4993542;28;20064;-67
2022/08/04 03:32:05;;;;;;;6.85;2.35;;;23.90;62.20;;;;;;4993567;28;20042;-66
2022/08/04 03:34:44;;;;;;;4.05;1.90;;;23.90;62.40;;;;;;4993371;28;20061;-67
2022/08/04 03:37:40;;;;;;;4.00;1.70;;;23.90;62.60;;;;;;4993247;28;20026;-67
2022/08/04 03:40:43;;;;;;;3.47;1.60;;;23.90;62.40;;;;;;4993017;28;20031;-67
2022/08/04 03:43:37;;;;;;;4.13;1.80;;;23.90;62.40;;;;;;4992722;28;20049;-67
2022/08/04 03:46:18;;;;;;;2.90;1.50;;;23.80;62.50;;;;;;4990805;28;20022;-67
2022/08/04 03:49:12;;;;;;;5.45;1.75;;;23.80;62.70;;;;;;4992802;28;20105;-67
2022/08/04 03:55:17;;;;;;;3.38;1.60;;;23.80;62.60;;;;;;4992415;28;20666;-67
2022/08/04 03:58:34;;;;;;;5.43;1.85;;;23.80;62.70;;;;;;4990423;28;20397;-67
2022/08/04 04:01:24;;;;;;;4.38;1.60;;;23.80;62.60;;;;;;4980286;28;20068;-67
2022/08/04 04:04:36;;;;;;;4.70;1.98;;;23.80;62.60;;;;;;4991528;28;20022;-68
2022/08/04 04:07:16;;;;;;;;;;;23.80;62.70;;;;;;4993039;28;20114;-67
2022/08/04 04:10:02;;;;;;;4.05;1.50;;;23.70;62.70;;;;;;4992172;28;19911;-67
2022/08/04 04:13:01;;;;;;;7.40;2.05;;;23.80;62.70;;;;;;4992362;28;20029;-67
2022/08/04 04:15:49;;;;;;;4.88;1.88;;;23.80;62.60;;;;;;4992065;28;20081;-67
2022/08/04 04:18:32;;;;;;;4.38;1.80;;;23.80;62.80;;;;;;4992221;28;20549;-67
2022/08/04 04:21:35;;;;;;;6.13;2.15;;;23.80;62.70;;;;;;4992002;28;20521;-67
2022/08/04 04:24:15;;;;;;;5.70;1.80;;;23.80;62.80;;;;;;4992009;28;20022;-67
2022/08/04 04:27:11;;;;;;;5.65;1.80;;;23.70;62.90;;;;;;4990507;28;20401;-67
2022/08/04 04:30:04;;;;;;;4.80;2.17;;;23.70;63.00;;;;;;4992110;28;20018;-67
2022/08/04 04:33:06;;;;;;;5.50;1.77;;;23.70;62.90;;;;;;4991633;28;20393;-67
2022/08/04 04:36:07;;;;;;;3.50;1.27;;;23.80;62.70;;;;;;4991872;28;20027;-67
2022/08/04 04:38:59;;;;;;;2.53;1.40;;;23.90;62.40;;;;;;4991630;28;20393;-67
2022/08/04 04:41:40;;;;;;;3.80;1.25;;;24.00;62.20;;;;;;4991498;28;20042;-67
2022/08/04 04:44:14;;;;;;;3.70;1.35;;;24.10;62.00;;;;;;4992863;28;20394;-67
2022/08/04 04:47:12;;;;;;;5.10;1.38;;;24.10;61.90;;;;;;4991706;28;20053;-67
2022/08/04 04:50:07;;;;;;;3.85;1.40;;;24.10;61.80;;;;;;4991563;28;20392;-67
2022/08/04 04:52:43;;;;;;;2.90;1.40;;;24.20;61.80;;;;;;4991342;28;20486;-67
2022/08/04 04:55:08;;;;;;;4.20;1.38;;;24.20;61.70;;;;;;4991418;28;20029;-67
2022/08/04 04:57:36;;;;;;;6.03;1.70;;;24.20;61.70;;;;;;5007789;28;20026;-67
2022/08/04 05:00:08;;;;;;;2.20;1.20;;;24.20;61.60;;;;;;5010847;28;20030;-66
2022/08/04 05:02:33;;;;;;;;;;;24.20;61.70;;;;;;5011170;28;20105;-66
2022/08/04 05:05:11;;;;;;;4.05;1.45;;;24.20;61.60;;;;;;5010825;28;20399;-66
2022/08/04 05:08:15;;;;;;;3.05;1.25;;;24.30;61.70;;;;;;5010943;28;20022;-67
2022/08/04 05:11:04;;;;;;;3.58;1.10;;;24.30;61.60;;;;;;5010843;28;20598;-68
2022/08/04 05:13:45;;;;;;;2.90;1.30;;;24.30;61.70;;;;;;5010974;28;20124;-67
2022/08/04 05:16:26;;;;;;;3.17;1.60;;;24.30;61.50;;;;;;5010674;28;20030;-67
2022/08/04 05:19:10;;;;;;;4.80;1.50;;;24.30;61.60;;;;;;5009530;28;20037;-67
2022/08/04 05:21:42;;;;;;;4.53;1.45;;;24.30;61.70;;;;;;5010586;28;20022;-67
2022/08/04 05:24:11;;;;;;;3.72;1.80;;;24.30;61.80;;;;;;5010651;28;20547;-67
2022/08/04 05:27:14;;;;;;;4.20;1.77;;;24.50;61.60;;;;;;5010498;28;20022;-67
2022/08/04 05:29:55;;;;;;;3.40;1.40;;;24.90;61.00;;;;;;5003135;28;20040;-67
2022/08/04 05:32:29;;;;;;;6.78;1.80;;;25.50;60.20;;;;;;5010511;28;20054;-66
2022/08/04 05:35:01;;;;;;;4.05;1.73;;;26.40;58.60;;;;;;5010630;28;20029;-66
2022/08/04 05:37:29;;;;;;;4.43;1.85;;;27.40;56.70;;;;;;5010383;28;20076;-66
2022/08/04 05:40:03;;;;;;;4.82;2.15;;;28.30;55.00;;;;;;5010779;28;20550;-66
2022/08/04 05:42:30;;;;;;;2.65;1.70;;;29.20;53.40;;;;;;5010562;28;20037;-66
2022/08/04 05:44:56;;;;;;;3.38;1.75;;;29.60;52.20;;;;;;5010759;28;20084;-66
2022/08/04 05:47:23;;;;;;;5.10;2.00;;;29.90;51.60;;;;;;5010629;28;20032;-66
2022/08/04 05:49:49;;;;;;;3.38;1.65;;;29.80;51.40;;;;;;5009421;28;20052;-66
2022/08/04 05:52:16;;;;;;;3.97;1.88;;;30.00;51.30;;;;;;5010418;28;20091;-66
2022/08/04 05:54:42;;;;;;;3.97;1.80;;;30.00;50.80;;;;;;5010769;28;20434;-66
2022/08/04 05:57:08;;;;;;;4.97;2.13;;;29.70;51.00;;;;;;5010272;28;20543;-66
2022/08/04 05:59:37;;;;;;;5.55;2.08;;;29.20;51.60;;;;;;5009171;28;20026;-66
2022/08/04 06:02:04;;;;;;;4.57;2.10;;;28.80;52.50;;;;;;5010211;28;20472;-66
2022/08/04 06:04:34;;;;;;;2.95;1.60;;;28.40;53.40;;;;;;5009999;28;20487;-66
2022/08/04 06:06:59;;;;;;;3.80;1.85;;;28.00;54.10;;;;;;5010296;28;20029;-66
2022/08/04 06:09:25;;;;;;;5.60;2.13;;;27.70;54.60;;;;;;5010544;28;20030;-66
2022/08/04 06:11:52;;;;;;;3.78;1.88;;;27.60;55.00;;;;;;5014093;28;20037;-66
2022/08/04 06:14:22;;;;;;;3.55;1.80;;;27.50;55.30;;;;;;5013840;28;20037;-66
2022/08/04 06:16:50;;;;;;;2.80;1.70;;;27.60;55.40;;;;;;5014000;28;20018;-66
2022/08/04 06:19:19;;;;;;;3.47;1.85;;;28.00;54.80;;;;;;5013767;28;20025;-66
2022/08/04 06:21:47;;;;;;;3.88;1.70;;;28.10;54.30;;;;;;5013910;28;20030;-66
2022/08/04 06:24:17;;;;;;;4.80;1.77;;;27.90;54.40;;;;;;5012403;28;20037;-66
2022/08/04 06:26:44;;;;;;;3.90;2.00;;;27.80;54.80;;;;;;5013854;28;20049;-67
2022/08/04 06:29:19;;;;;;;2.90;1.67;;;27.80;54.80;;;;;;5012323;28;20036;-67
2022/08/04 06:31:56;;;;;;;3.85;1.77;;;27.80;54.80;;;;;;5013750;28;20069;-66
2022/08/04 06:34:24;;;;;;;4.28;2.17;;;27.90;54.70;;;;;;5013578;28;20428;-66
2022/08/04 06:36:50;;;;;;;5.70;2.03;;;27.90;54.60;;;;;;5013535;28;20088;-66
2022/08/04 06:39:17;;;;;;;3.33;1.73;;;28.10;54.40;;;;;;5013550;28;20022;-66
2022/08/04 06:41:43;;;;;;;3.38;1.65;;;28.40;53.90;;;;;;5013273;28;20744;-66
2022/08/04 06:44:10;;;;;;;2.85;1.65;;;28.80;53.40;;;;;;5013224;28;20026;-67
2022/08/04 06:46:40;;;;;;;3.22;2.03;;;29.00;53.10;;;;;;5012100;28;20021;-66
2022/08/04 06:49:06;;;;;;;4.07;1.80;;;28.90;52.90;;;;;;5013451;28;20108;-67
2022/08/04 06:51:35;;;;;;;5.15;1.98;;;28.80;52.90;;;;;;5011929;28;20040;-67
2022/08/04 06:54:01;;;;;;;4.32;1.80;;;28.80;52.90;;;;;;5013311;28;20018;-67
2022/08/04 06:56:28;;;;;;;4.05;1.98;;;28.80;52.90;;;;;;5013012;28;20354;-67
2022/08/04 06:58:55;;;;;;;5.18;2.13;;;28.80;53.00;;;;;;5013149;28;20040;-67
2022/08/04 07:01:21;;;;;;;5.38;1.75;;;28.80;53.20;;;;;;5013088;28;20583;-66
2022/08/04 07:03:48;;;;;;;6.68;1.90;;;28.80;53.30;;;;;;5013286;28;20026;-66
2022/08/04 07:06:13;;;;;;;4.47;1.70;;;28.70;53.30;;;;;;5013177;28;20034;-66
2022/08/04 07:08:39;;;;;;;6.60;1.85;;;28.60;53.40;;;;;;5012995;28;20519;-67
2022/08/04 07:11:06;;;;;;;4.80;1.65;;;28.70;53.40;;;;;;5012915;28;20052;-66
2022/08/04 07:13:32;;;;;;;4.82;1.63;;;28.70;53.30;;;;;;5012616;28;20023;-66
2022/08/04 07:15:58;;;;;;;4.63;1.80;;;28.70;53.30;;;;;;5013063;28;20432;-67
2022/08/04 07:18:24;;;;;;;4.85;2.20;;;28.90;53.00;;;;;;5012763;28;20105;-67
2022/08/04 07:20:50;;;;;;;4.43;1.45;;;29.40;52.10;;;;;;5012587;28;20097;-67
2022/08/04 07:23:21;;;;;;;5.78;1.88;;;30.00;51.20;;;;;;5011240;28;20112;-67
2022/08/04 07:25:52;;;;;;;5.88;2.20;;;30.40;50.40;;;;;;5011455;28;20040;-67
2022/08/04 07:28:19;;;;;;;6.35;1.85;;;30.80;49.80;;;;;;5011265;28;20041;-67
2022/08/04 07:30:46;;;;;;;4.43;1.80;;;31.00;49.10;;;;;;5012734;28;20025;-67
2022/08/04 07:33:13;;;;;;;4.85;1.70;;;31.10;48.90;;;;;;5012511;28;20034;-67
2022/08/04 07:35:40;;;;;;;3.75;1.70;;;31.20;48.70;;;;;;5012378;28;20068;-67
2022/08/04 07:38:05;;;;;;;5.72;1.70;;;31.20;48.50;;;;;;5012384;28;20018;-66
2022/08/04 07:40:31;;;;;;;4.05;1.55;;;31.30;48.40;;;;;;5012197;28;20026;-67
2022/08/04 07:42:58;;;;;;;6.10;1.88;;;31.40;48.20;;;;;;5012345;28;20030;-67
2022/08/04 07:45:24;;;;;;;5.95;1.77;;;31.50;48.10;;;;;;5012185;28;20030;-67
2022/08/04 07:47:50;;;;;;;4.57;1.65;;;31.60;48.00;;;;;;5012313;28;20485;-67
2022/08/04 07:50:16;;;;;;;4.78;1.63;;;31.60;47.60;;;;;;5012062;28;20030;-67
2022/08/04 07:52:43;;;;;;;5.97;1.83;;;31.60;47.50;;;;;;5012164;28;20030;-67
2022/08/04 07:55:09;;;;;;;2.53;1.38;;;31.60;47.50;;;;;;5011958;28;20022;-67
2022/08/04 07:57:35;;;;;;;4.05;1.52;;;31.60;47.40;;;;;;5010804;28;20029;-67
2022/08/04 08:00:02;;;;;;;4.07;1.60;;;31.60;47.30;;;;;;5012209;28;20022;-66
2022/08/04 08:02:28;;;;;;;4.20;1.63;;;31.60;47.20;;;;;;5010793;28;20022;-67
2022/08/04 08:04:54;;;;;;;3.30;1.55;;;31.60;47.10;;;;;;5012015;28;20025;-67
2022/08/04 08:07:19;;;;;;;4.20;1.58;;;31.70;46.90;;;;;;5011803;28;20018;-67
2022/08/04 08:09:45;;;;;;;3.85;1.48;;;31.80;46.50;;;;;;5012122;28;20021;-67
2022/08/04 08:12:12;;;;;;;2.63;1.42;;;31.90;46.40;;;;;;5011740;28;20365;-66
2022/08/04 08:14:38;;;;;;;5.15;1.70;;;31.90;46.10;;;;;;5010926;28;20010;-66
2022/08/04 08:17:04;;;;;;;3.20;1.50;;;31.90;45.60;;;;;;5011946;28;20026;-66
2022/08/04 08:19:31;;;;;;;3.20;1.13;;;31.90;45.70;;;;;;5011825;28;20053;-66
2022/08/04 08:21:57;;;;;;;5.32;1.60;;;32.00;45.80;;;;;;5011640;28;20698;-66
2022/08/04 08:24:23;;;;;;;5.32;1.63;;;31.90;45.50;;;;;;5011661;28;20504;-66
2022/08/04 08:26:49;;;;;;;2.38;1.33;;;32.00;45.70;;;;;;5010232;28;20049;-66
2022/08/04 08:29:14;;;;;;;5.68;1.90;;;32.10;45.70;;;;;;5010361;28;20058;-67
2022/08/04 08:31:40;;;;;;;3.97;1.55;;;32.10;45.70;;;;;;5010674;28;20030;-66
2022/08/04 08:34:07;;;;;;;2.53;1.38;;;32.20;45.70;;;;;;5002357;28;20030;-66
2022/08/04 08:36:42;;;;;;;3.03;1.45;;;32.20;45.80;;;;;;5005871;28;20500;-66
2022/08/04 08:39:13;;;;;;;4.13;1.48;;;32.30;45.70;;;;;;5004077;28;20494;-66
2022/08/04 08:41:39;;;;;;;;;;;32.40;45.50;;;;;;4999356;28;20026;-67
2022/08/04 08:44:42;;;;;;;4.95;1.73;;;32.50;45.60;;;;;;4996792;28;19968;-67
2022/08/04 08:47:34;;;;;;;3.88;1.50;;;32.50;45.20;;;;;;4998732;28;20033;-67
2022/08/04 08:50:28;;;;;;;3.90;1.40;;;32.50;45.20;;;;;;4998626;28;20038;-67
2022/08/04 08:53:25;;;;;;;4.13;1.42;;;32.50;45.00;;;;;;4995413;28;20030;-67
2022/08/04 08:56:04;;;;;;;3.45;1.35;;;32.50;44.80;;;;;;4999744;28;20034;-67
2022/08/04 08:59:14;;;;;;;3.97;1.52;;;32.60;44.90;;;;;;5001701;28;20480;-65
2022/08/04 09:02:01;;;;;;;4.30;1.50;;;32.60;44.50;;;;;;4995780;28;20034;-66
2022/08/04 09:05:06;;;;;;;5.18;1.70;;;32.60;44.60;;;;;;5000826;28;20654;-66
2022/08/04 09:07:40;;;;;;;2.53;1.20;;;32.80;44.80;;;;;;5001095;28;20528;-66
2022/08/04 09:10:27;;;;;;;2.95;1.30;;;32.80;44.80;;;;;;5001042;28;20018;-66
2022/08/04 09:13:02;;;;;;;5.68;1.70;;;32.80;44.90;;;;;;4999928;28;20014;-66
2022/08/04 09:16:01;;;;;;;3.50;1.60;;;32.80;44.90;;;;;;4998743;28;20018;-66
2022/08/04 09:18:43;;;;;;;4.70;1.73;;;32.70;45.00;;;;;;4998860;28;20031;-67
2022/08/04 09:21:17;;;;;;;6.15;1.88;;;32.60;45.20;;;;;;4999152;28;20019;-67
2022/08/04 09:24:11;;;;;;;4.15;1.55;;;32.60;45.40;;;;;;4997568;28;20022;-67
2022/08/04 09:26:47;;;;;;;3.70;1.95;;;32.60;45.50;;;;;;5008181;28;20022;-67
2022/08/04 09:29:34;;;;;;;3.40;1.73;;;32.50;45.50;;;;;;5008976;28;20024;-67
2022/08/04 09:32:09;;;;;;;3.80;1.90;;;32.30;45.60;;;;;;5007074;28;20033;-67
2022/08/04 09:35:13;;;;;;;4.70;2.30;;;32.30;45.80;;;;;;5008576;28;20029;-67
2022/08/04 09:38:01;;;;;;;3.63;2.00;;;32.20;45.90;;;;;;5012038;28;20084;-67
2022/08/04 09:40:32;;;;;;;4.38;1.88;;;32.10;46.00;;;;;;5008652;28;20455;-67
2022/08/04 09:43:41;;;;;;;4.43;2.10;;;32.10;46.00;;;;;;5007316;28;20018;-67
2022/08/04 09:46:22;;;;;;;8.10;2.40;;;32.00;46.30;;;;;;5013197;28;20028;-67
2022/08/04 09:48:53;;;;;;;2.92;1.77;;;31.90;46.80;;;;;;5013015;28;20452;-67
2022/08/04 09:51:38;;;;;;;3.08;1.90;;;31.90;47.00;;;;;;5008747;28;20021;-67
2022/08/04 09:54:21;;;;;;;4.63;1.80;;;31.90;47.20;;;;;;5012146;28;20014;-67
2022/08/04 09:57:06;;;;;;;4.10;1.90;;;31.90;47.30;;;;;;5011067;28;20029;-67
2022/08/04 10:00:01;;;;;;;4.05;1.85;;;32.00;47.40;;;;;;4987343;28;20068;-67
2022/08/04 10:02:41;;;;;;;3.63;1.60;;;32.00;47.20;;;;;;5023254;28;20041;-67
2022/08/04 10:05:22;;;;;;;3.05;1.70;;;32.10;47.00;;;;;;5011146;28;20014;-66
2022/08/04 10:08:13;;;;;;;3.88;1.55;;;32.00;46.80;;;;;;5008492;28;20040;-66
2022/08/04 10:10:58;;;;;;;;;;;32.00;46.80;;;;;;5010447;28;20124;-67
2022/08/04 10:13:55;;;;;;;4.25;1.83;;;32.10;46.80;;;;;;5008533;28;19914;-67
2022/08/04 10:16:44;;;;;;;4.07;1.52;;;32.00;46.50;;;;;;5010473;28;20014;-66
2022/08/04 10:19:37;;;;;;;5.80;1.30;;;31.90;46.40;;;;;;5008120;28;20030;-67
2022/08/04 10:22:02;;;;;;;3.80;1.60;;;31.70;46.40;;;;;;5010897;28;20026;-66
2022/08/04 10:24:35;;;;;;;2.58;1.00;;;31.60;46.50;;;;;;5012647;28;20037;-67
2022/08/04 10:27:08;;;;;;;3.55;1.50;;;31.60;46.90;;;;;;5002024;28;20037;-66
2022/08/04 10:29:45;;;;;;;3.70;1.50;;;31.50;46.50;;;;;;5003059;28;20032;-67
2022/08/04 10:32:35;;;;;;;3.85;1.77;;;31.40;46.50;;;;;;5008766;28;20018;-67
2022/08/04 10:35:15;;;;;;;2.88;1.10;;;31.20;46.70;;;;;;5004339;28;20034;-67
2022/08/04 10:38:00;;;;;;;3.20;1.00;;;31.30;46.90;;;;;;5019107;28;20023;-66
2022/08/04 10:40:36;;;;;;;3.58;1.30;;;31.20;46.90;;;;;;5010064;28;20026;-67
2022/08/04 10:43:16;;;;;;;3.17;1.38;;;31.20;47.10;;;;;;5010896;28;20029;-67
2022/08/04 10:45:56;;;;;;;4.95;1.30;;;31.10;47.40;;;;;;5006403;28;20030;-67
2022/08/04 10:48:35;;;;;;;2.63;1.30;;;30.90;47.70;;;;;;5008759;28;20068;-66
2022/08/04 10:51:10;;;;;;;2.75;1.38;;;30.70;48.10;;;;;;5008713;28;20045;-66
2022/08/04 10:53:38;;;;;;;3.30;1.38;;;30.60;48.50;;;;;;5008625;28;20081;-67
2022/08/04 10:56:12;;;;;;;4.45;1.10;;;30.40;48.80;;;;;;5008824;28;20050;-67
2022/08/04 10:58:49;;;;;;;2.72;1.00;;;30.10;49.20;;;;;;5010913;28;20022;-67
2022/08/04 11:01:22;;;;;;;5.50;1.35;;;30.00;50.00;;;;;;5011120;28;20022;-67
2022/08/04 11:03:55;;;;;;;3.55;1.30;;;29.70;50.70;;;;;;5012471;28;20056;-67
2022/08/04 11:06:23;;;;;;;4.85;1.60;;;29.50;52.00;;;;;;5011526;28;20022;-67
2022/08/04 11:08:57;;;;;;;4.88;1.30;;;29.10;52.80;;;;;;5008886;28;20029;-67
2022/08/04 11:11:31;;;;;;;3.13;1.50;;;28.90;53.90;;;;;;5013888;28;20104;-67
2022/08/04 11:14:14;;;;;;;3.25;1.08;;;28.60;54.30;;;;;;5009833;28;20101;-67
2022/08/04 11:16:45;;;;;;;5.03;1.20;;;28.50;55.00;;;;;;5009162;28;20022;-67
2022/08/04 11:19:18;;;;;;;4.15;1.20;;;28.30;55.40;;;;;;5005909;28;20018;-68
2022/08/04 11:21:56;;;;;;;3.25;1.00;;;28.20;56.30;;;;;;5005660;28;20062;-68
2022/08/04 11:24:36;;;;;;;2.00;1.20;;;28.10;56.80;;;;;;5009629;28;20022;-68
2022/08/04 11:27:07;;;;;;;5.03;1.23;;;27.90;57.50;;;;;;5008310;28;20033;-68
2022/08/04 11:29:57;;;;;;;3.17;1.30;;;27.90;57.80;;;;;;5009363;28;20111;-67
2022/08/04 11:32:36;;;;;;;2.38;1.23;;;27.80;58.30;;;;;;5009117;28;20075;-67
2022/08/04 11:35:05;;;;;;;2.55;1.20;;;27.70;59.00;;;;;;5007338;28;20018;-67
2022/08/04 11:37:40;;;;;;;3.05;1.20;;;27.60;59.80;;;;;;5008895;28;20593;-67
2022/08/04 11:40:19;;;;;;;2.22;0.90;;;27.50;60.20;;;;;;5007632;28;20041;-67
2022/08/04 11:43:11;;;;;;;3.90;1.27;;;27.40;60.10;;;;;;5008602;28;20041;-67
2022/08/04 11:45:49;;;;;;;2.92;1.30;;;27.20;61.10;;;;;;5008314;28;20030;-68
2022/08/04 11:48:30;;;;;;;3.22;1.33;;;27.20;61.60;;;;;;5022484;28;20050;-66
2022/08/04 11:50:57;;;;;;;9.48;1.70;;;27.20;61.60;;;;;;5008841;28;20488;-67
2022/08/04 11:53:26;;;;;;;3.85;1.60;;;27.20;61.60;;;;;;5007603;28;20026;-67
2022/08/04 11:55:57;;;;;;;3.35;1.45;;;27.20;61.80;;;;;;5008258;28;20551;-67
2022/08/04 11:58:22;;;;;;;4.60;1.40;;;27.20;62.00;;;;;;5010389;28;20098;-67
2022/08/04 12:00:57;;;;;;;5.00;1.58;;;27.20;62.10;;;;;;5009071;28;20026;-67
2022/08/04 12:03:50;;;;;;;4.20;1.55;;;27.30;62.60;;;;;;5008833;28;20112;-66
2022/08/04 12:06:31;;;;;;;3.63;1.45;;;27.30;62.40;;;;;;5008474;28;20116;-66
2022/08/04 12:09:03;;;;;;;2.47;1.52;;;27.40;62.50;;;;;;5006899;28;20034;-67
2022/08/04 12:11:57;;;;;;;3.10;1.27;;;27.30;63.10;;;;;;5006894;28;20033;-67
2022/08/04 12:14:41;;;;;;;3.53;1.50;;;27.30;63.40;;;;;;5006660;28;20032;-66
2022/08/04 12:17:09;;;;;;;2.35;1.40;;;27.30;64.20;;;;;;5009250;28;20025;-66
2022/08/04 12:19:49;;;;;;;4.45;1.33;;;27.30;63.50;;;;;;5005166;28;20034;-66
2022/08/04 12:22:20;;;;;;;6.28;1.80;;;27.20;64.00;;;;;;5008336;28;20029;-66
2022/08/04 12:24:51;;;;;;;3.08;1.40;;;27.10;64.20;;;;;;5011158;28;20030;-66
2022/08/04 12:27:24;;;;;;;3.20;1.63;;;27.10;64.20;;;;;;5032989;28;20070;-67
2022/08/04 12:29:51;;;;;;;4.30;1.67;;;27.20;64.40;;;;;;5025811;28;20049;-66
2022/08/04 12:32:56;;;;;;;3.17;1.70;;;27.20;64.40;;;;;;5012753;28;20025;-66
2022/08/04 12:35:29;;;;;;;3.63;1.40;;;27.20;64.30;;;;;;5010006;28;20025;-67
2022/08/04 12:38:05;;;;;;;3.72;1.75;;;27.30;64.30;;;;;;5017450;28;20018;-67
2022/08/04 12:40:43;;;;;;;2.17;1.42;;;27.40;64.50;;;;;;5006015;28;20022;-67
2022/08/04 12:43:11;;;;;;;3.20;1.45;;;27.40;64.60;;;;;;5014783;28;20040;-67
2022/08/04 12:45:45;;;;;;;5.45;1.50;;;27.50;64.60;;;;;;5010286;28;20393;-67
2022/08/04 12:48:11;;;;;;;3.15;1.58;;;27.60;64.60;;;;;;5004380;28;20038;-69
2022/08/04 12:50:38;;;;;;;3.00;1.40;;;27.70;64.50;;;;;;5008611;28;20144;-67
2022/08/04 12:53:11;;;;;;;5.72;1.70;;;27.70;64.30;;;;;;5005511;28;20029;-67
2022/08/04 12:55:43;;;;;;;4.70;1.90;;;27.70;64.00;;;;;;5007554;28;20018;-67
2022/08/04 12:58:17;;;;;;;4.00;1.70;;;27.80;63.90;;;;;;5006892;28;20026;-67
2022/08/04 13:00:49;;;;;;;3.53;1.85;;;28.00;63.50;;;;;;5006144;28;20041;-67
2022/08/04 13:03:16;;;;;;;3.15;1.63;;;28.10;63.00;;;;;;5006941;28;20014;-67
2022/08/04 13:05:43;;;;;;;6.55;1.55;;;28.30;62.70;;;;;;5008205;28;20517;-67
2022/08/04 13:08:10;;;;;;;2.17;1.30;;;28.30;62.20;;;;;;5008141;28;20079;-66
2022/08/04 13:10:43;;;;;;;3.47;1.40;;;28.30;61.40;;;;;;5016451;28;20022;-67
2022/08/04 13:13:16;;;;;;;4.30;1.52;;;28.40;60.80;;;;;;5010036;28;20116;-66
2022/08/04 13:15:42;;;;;;;2.83;1.40;;;28.30;59.80;;;;;;5019969;28;20037;-67
2022/08/04 13:18:11;;;;;;;1.65;1.10;;;28.20;59.90;;;;;;5024260;28;20028;-66
2022/08/04 13:20:38;;;;;;;2.35;1.25;;;28.30;59.60;;;;;;5009427;28;20226;-67
2022/08/04 13:23:06;;;;;;;1.98;1.30;;;28.30;59.50;;;;;;5008532;28;20464;-68
2022/08/04 13:25:34;;;;;;;2.88;1.30;;;28.40;59.10;;;;;;5007708;28;20029;-67
2022/08/04 13:28:01;;;;;;;3.10;1.10;;;28.60;58.70;;;;;;5008425;28;20018;-66
2022/08/04 13:30:29;;;;;;;1.95;1.17;;;28.90;58.50;;;;;;5006715;28;20110;-67
2022/08/04 13:32:58;;;;;;;2.42;1.35;;;29.10;58.00;;;;;;5008580;28;20025;-67
2022/08/04 13:35:26;;;;;;;1.55;1.20;;;29.30;57.20;;;;;;5008785;28;20022;-67
2022/08/04 13:37:55;;;;;;;2.08;1.20;;;29.40;56.50;;;;;;5008558;28;21322;-67
2022/08/04 13:40:22;;;;;;;2.55;1.20;;;29.40;56.10;;;;;;5006356;28;20026;-67